sensor_id;sensor_type;location;lat;lon;timestamp;P1;durP1;ratioP1;P2;durP2;ratioP2
62037;SDS011;47991;42.974;12.082;2023-04-03T00:01:31;7.10;;;2.20;;
62037;SDS011;47991;42.974;12.082;2023-04-03T00:03:59;8.70;;;2.60;;
62037;SDS011;47991;42.974;12.082;2023-04-03T00:06:26;6.90;;;2.10;;
62037;SDS011;47991;42.974;12.082;2023-04-03T00:08:56;6.90;;;2.10;;
62037;SDS011;47991;42.974;12.082;2023-04-03T00:11:23;8.20;;;2.10;;
62037;SDS011;47991;42.974;12.082;2023-04-03T00:13:50;6.50;;;2.00;;
62037;SDS011;47991;42.974;12.082;2023-04-03T00:16:17;6.40;;;2.10;;
62037;SDS011;47991;42.974;12.082;2023-04-03T00:18:44;7.20;;;2.40;;
62037;SDS011;47991;42.974;12.082;2023-04-03T00:21:12;9.60;;;2.80;;
62037;SDS011;47991;42.974;12.082;2023-04-03T00:23:45;6.50;;;2.30;;
62037;SDS011;47991;42.974;12.082;2023-04-03T00:26:12;4.40;;;1.70;;
62037;SDS011;47991;42.974;12.082;2023-04-03T00:28:39;6.50;;;1.80;;
62037;SDS011;47991;42.974;12.082;2023-04-03T00:31:10;5.30;;;2.00;;
62037;SDS011;47991;42.974;12.082;2023-04-03T00:33:38;7.60;;;2.20;;
62037;SDS011;47991;42.974;12.082;2023-04-03T00:36:05;6.70;;;2.10;;
62037;SDS011;47991;42.974;12.082;2023-04-03T00:38:33;4.20;;;2.00;;
62037;SDS011;47991;42.974;12.082;2023-04-03T00:41:01;4.40;;;1.90;;
62037;SDS011;47991;42.974;12.082;2023-04-03T00:43:34;4.90;;;1.90;;
62037;SDS011;47991;42.974;12.082;2023-04-03T00:46:06;6.30;;;2.50;;
62037;SDS011;47991;42.974;12.082;2023-04-03T00:48:38;4.70;;;2.00;;
62037;SDS011;47991;42.974;12.082;2023-04-03T00:51:09;6.70;;;2.40;;
62037;SDS011;47991;42.974;12.082;2023-04-03T00:53:59;4.80;;;2.10;;
62037;SDS011;47991;42.974;12.082;2023-04-03T01:01:43;5.20;;;2.00;;
62037;SDS011;47991;42.974;12.082;2023-04-03T01:04:31;7.30;;;2.60;;
62037;SDS011;47991;42.974;12.082;2023-04-03T01:07:14;6.40;;;2.10;;
62037;SDS011;47991;42.974;12.082;2023-04-03T01:09:45;6.80;;;2.50;;
62037;SDS011;47991;42.974;12.082;2023-04-03T01:14:53;6.30;;;2.60;;
62037;SDS011;47991;42.974;12.082;2023-04-03T01:17:39;6.90;;;2.30;;
62037;SDS011;47991;42.974;12.082;2023-04-03T01:25:42;6.10;;;2.10;;
62037;SDS011;47991;42.974;12.082;2023-04-03T01:28:16;6.00;;;2.10;;
62037;SDS011;47991;42.974;12.082;2023-04-03T01:33:45;5.40;;;2.10;;
62037;SDS011;47991;42.974;12.082;2023-04-03T01:36:14;6.30;;;1.80;;
62037;SDS011;47991;42.974;12.082;2023-04-03T01:38:47;6.70;;;2.10;;
62037;SDS011;47991;42.974;12.082;2023-04-03T01:41:16;7.40;;;2.20;;
62037;SDS011;47991;42.974;12.082;2023-04-03T01:43:47;8.50;;;2.50;;
62037;SDS011;47991;42.974;12.082;2023-04-03T01:46:16;8.70;;;2.60;;
62037;SDS011;47991;42.974;12.082;2023-04-03T01:48:45;6.60;;;2.60;;
62037;SDS011;47991;42.974;12.082;2023-04-03T01:51:13;6.90;;;2.30;;
62037;SDS011;47991;42.974;12.082;2023-04-03T01:53:40;5.50;;;2.20;;
62037;SDS011;47991;42.974;12.082;2023-04-03T01:56:07;6.10;;;2.50;;
62037;SDS011;47991;42.974;12.082;2023-04-03T01:58:35;6.60;;;2.70;;
62037;SDS011;47991;42.974;12.082;2023-04-03T02:01:06;6.00;;;2.40;;
62037;SDS011;47991;42.974;12.082;2023-04-03T02:03:34;5.40;;;2.20;;
62037;SDS011;47991;42.974;12.082;2023-04-03T02:06:06;6.30;;;2.40;;
62037;SDS011;47991;42.974;12.082;2023-04-03T02:08:33;7.60;;;2.80;;
62037;SDS011;47991;42.974;12.082;2023-04-03T02:11:00;5.50;;;2.50;;
62037;SDS011;47991;42.974;12.082;2023-04-03T02:13:27;7.20;;;2.90;;
62037;SDS011;47991;42.974;12.082;2023-04-03T02:15:59;8.30;;;2.90;;
62037;SDS011;47991;42.974;12.082;2023-04-03T02:18:26;8.30;;;3.00;;
62037;SDS011;47991;42.974;12.082;2023-04-03T02:20:52;7.50;;;2.90;;
62037;SDS011;47991;42.974;12.082;2023-04-03T02:23:21;9.10;;;3.30;;
62037;SDS011;47991;42.974;12.082;2023-04-03T02:25:49;7.10;;;3.50;;
62037;SDS011;47991;42.974;12.082;2023-04-03T02:28:16;7.30;;;3.50;;
62037;SDS011;47991;42.974;12.082;2023-04-03T02:30:44;8.90;;;3.50;;
62037;SDS011;47991;42.974;12.082;2023-04-03T02:33:13;8.50;;;3.10;;
62037;SDS011;47991;42.974;12.082;2023-04-03T02:35:45;7.80;;;2.70;;
62037;SDS011;47991;42.974;12.082;2023-04-03T02:38:20;6.50;;;2.50;;
62037;SDS011;47991;42.974;12.082;2023-04-03T02:40:48;6.20;;;2.80;;
62037;SDS011;47991;42.974;12.082;2023-04-03T02:43:20;7.50;;;2.80;;
62037;SDS011;47991;42.974;12.082;2023-04-03T02:45:51;6.90;;;2.80;;
62037;SDS011;47991;42.974;12.082;2023-04-03T02:48:18;5.40;;;2.50;;
62037;SDS011;47991;42.974;12.082;2023-04-03T02:50:45;6.50;;;2.50;;
62037;SDS011;47991;42.974;12.082;2023-04-03T02:53:12;6.20;;;2.40;;
62037;SDS011;47991;42.974;12.082;2023-04-03T02:55:39;5.20;;;2.10;;
62037;SDS011;47991;42.974;12.082;2023-04-03T02:58:06;6.00;;;2.60;;
62037;SDS011;47991;42.974;12.082;2023-04-03T03:00:35;4.50;;;2.10;;
62037;SDS011;47991;42.974;12.082;2023-04-03T03:03:03;5.50;;;2.40;;
62037;SDS011;47991;42.974;12.082;2023-04-03T03:05:30;4.70;;;2.00;;
62037;SDS011;47991;42.974;12.082;2023-04-03T03:07:59;4.20;;;1.90;;
62037;SDS011;47991;42.974;12.082;2023-04-03T03:10:27;6.30;;;1.90;;
62037;SDS011;47991;42.974;12.082;2023-04-03T03:12:57;7.10;;;2.40;;
62037;SDS011;47991;42.974;12.082;2023-04-03T03:15:32;5.70;;;2.20;;
62037;SDS011;47991;42.974;12.082;2023-04-03T03:18:00;5.80;;;2.30;;
62037;SDS011;47991;42.974;12.082;2023-04-03T03:20:27;6.20;;;2.50;;
62037;SDS011;47991;42.974;12.082;2023-04-03T03:22:54;5.40;;;2.10;;
62037;SDS011;47991;42.974;12.082;2023-04-03T03:25:25;5.60;;;2.10;;
62037;SDS011;47991;42.974;12.082;2023-04-03T03:27:52;6.40;;;2.20;;
62037;SDS011;47991;42.974;12.082;2023-04-03T03:30:19;5.10;;;1.90;;
62037;SDS011;47991;42.974;12.082;2023-04-03T03:32:47;5.00;;;1.90;;
62037;SDS011;47991;42.974;12.082;2023-04-03T03:35:18;3.50;;;1.40;;
62037;SDS011;47991;42.974;12.082;2023-04-03T03:37:47;4.00;;;1.90;;
62037;SDS011;47991;42.974;12.082;2023-04-03T03:40:18;4.60;;;1.80;;
62037;SDS011;47991;42.974;12.082;2023-04-03T03:42:46;4.50;;;2.10;;
62037;SDS011;47991;42.974;12.082;2023-04-03T03:45:15;4.60;;;1.70;;
62037;SDS011;47991;42.974;12.082;2023-04-03T03:47:45;4.10;;;1.60;;
62037;SDS011;47991;42.974;12.082;2023-04-03T03:50:18;5.40;;;1.70;;
62037;SDS011;47991;42.974;12.082;2023-04-03T03:52:46;3.80;;;1.80;;
62037;SDS011;47991;42.974;12.082;2023-04-03T03:55:16;4.50;;;1.70;;
62037;SDS011;47991;42.974;12.082;2023-04-03T03:57:49;4.20;;;1.80;;
62037;SDS011;47991;42.974;12.082;2023-04-03T04:00:18;5.00;;;1.70;;
62037;SDS011;47991;42.974;12.082;2023-04-03T04:02:47;2.90;;;1.40;;
62037;SDS011;47991;42.974;12.082;2023-04-03T04:05:16;4.50;;;1.90;;
62037;SDS011;47991;42.974;12.082;2023-04-03T04:07:43;4.70;;;1.60;;
62037;SDS011;47991;42.974;12.082;2023-04-03T04:10:13;4.10;;;1.80;;
62037;SDS011;47991;42.974;12.082;2023-04-03T04:12:40;4.70;;;1.90;;
62037;SDS011;47991;42.974;12.082;2023-04-03T04:15:08;5.50;;;2.00;;
62037;SDS011;47991;42.974;12.082;2023-04-03T04:20:09;6.90;;;2.00;;
62037;SDS011;47991;42.974;12.082;2023-04-03T04:22:36;4.70;;;1.80;;
62037;SDS011;47991;42.974;12.082;2023-04-03T04:25:05;5.60;;;2.20;;
62037;SDS011;47991;42.974;12.082;2023-04-03T04:27:33;8.30;;;3.00;;
62037;SDS011;47991;42.974;12.082;2023-04-03T04:32:32;5.80;;;2.00;;
62037;SDS011;47991;42.974;12.082;2023-04-03T04:34:59;5.10;;;2.50;;
62037;SDS011;47991;42.974;12.082;2023-04-03T04:37:26;5.40;;;2.10;;
62037;SDS011;47991;42.974;12.082;2023-04-03T04:39:56;6.40;;;2.60;;
62037;SDS011;47991;42.974;12.082;2023-04-03T04:42:23;6.90;;;2.20;;
62037;SDS011;47991;42.974;12.082;2023-04-03T04:44:51;6.60;;;2.30;;
62037;SDS011;47991;42.974;12.082;2023-04-03T04:47:19;5.10;;;2.40;;
62037;SDS011;47991;42.974;12.082;2023-04-03T04:49:47;8.70;;;2.60;;
62037;SDS011;47991;42.974;12.082;2023-04-03T04:52:17;8.20;;;2.70;;
62037;SDS011;47991;42.974;12.082;2023-04-03T04:54:49;8.20;;;3.30;;
62037;SDS011;47991;42.974;12.082;2023-04-03T04:57:18;7.40;;;3.20;;
62037;SDS011;47991;42.974;12.082;2023-04-03T04:59:48;6.90;;;3.00;;
62037;SDS011;47991;42.974;12.082;2023-04-03T05:02:15;7.80;;;3.10;;
62037;SDS011;47991;42.974;12.082;2023-04-03T05:04:43;5.60;;;2.70;;
62037;SDS011;47991;42.974;12.082;2023-04-03T05:07:15;7.30;;;2.60;;
62037;SDS011;47991;42.974;12.082;2023-04-03T05:09:42;5.60;;;2.60;;
62037;SDS011;47991;42.974;12.082;2023-04-03T05:12:12;7.00;;;2.90;;
62037;SDS011;47991;42.974;12.082;2023-04-03T05:14:43;5.70;;;2.60;;
62037;SDS011;47991;42.974;12.082;2023-04-03T05:17:10;6.60;;;2.60;;
62037;SDS011;47991;42.974;12.082;2023-04-03T05:19:40;8.50;;;2.60;;
62037;SDS011;47991;42.974;12.082;2023-04-03T05:22:07;5.80;;;2.50;;
62037;SDS011;47991;42.974;12.082;2023-04-03T05:24:34;4.90;;;2.40;;
62037;SDS011;47991;42.974;12.082;2023-04-03T05:27:04;4.90;;;2.20;;
62037;SDS011;47991;42.974;12.082;2023-04-03T05:29:33;7.50;;;2.40;;
62037;SDS011;47991;42.974;12.082;2023-04-03T05:32:00;4.60;;;2.00;;
62037;SDS011;47991;42.974;12.082;2023-04-03T05:34:27;5.00;;;1.80;;
62037;SDS011;47991;42.974;12.082;2023-04-03T05:36:57;4.70;;;1.90;;
62037;SDS011;47991;42.974;12.082;2023-04-03T05:39:25;3.80;;;1.80;;
62037;SDS011;47991;42.974;12.082;2023-04-03T05:41:52;3.70;;;1.60;;
62037;SDS011;47991;42.974;12.082;2023-04-03T05:44:19;3.60;;;1.70;;
62037;SDS011;47991;42.974;12.082;2023-04-03T05:46:47;3.50;;;1.60;;
62037;SDS011;47991;42.974;12.082;2023-04-03T05:49:14;2.30;;;1.10;;
62037;SDS011;47991;42.974;12.082;2023-04-03T05:51:41;5.20;;;1.90;;
62037;SDS011;47991;42.974;12.082;2023-04-03T05:54:24;5.60;;;2.10;;
62037;SDS011;47991;42.974;12.082;2023-04-03T05:56:56;5.50;;;1.90;;
62037;SDS011;47991;42.974;12.082;2023-04-03T05:59:24;7.80;;;1.70;;
62037;SDS011;47991;42.974;12.082;2023-04-03T06:01:52;3.00;;;1.50;;
62037;SDS011;47991;42.974;12.082;2023-04-03T06:04:23;5.20;;;1.50;;
62037;SDS011;47991;42.974;12.082;2023-04-03T06:06:51;3.40;;;1.60;;
62037;SDS011;47991;42.974;12.082;2023-04-03T06:09:20;5.60;;;1.70;;
62037;SDS011;47991;42.974;12.082;2023-04-03T06:11:49;2.80;;;1.30;;
62037;SDS011;47991;42.974;12.082;2023-04-03T06:14:21;5.30;;;1.70;;
62037;SDS011;47991;42.974;12.082;2023-04-03T06:16:48;3.00;;;1.30;;
62037;SDS011;47991;42.974;12.082;2023-04-03T06:19:15;3.80;;;1.50;;
62037;SDS011;47991;42.974;12.082;2023-04-03T06:21:46;4.00;;;1.70;;
62037;SDS011;47991;42.974;12.082;2023-04-03T06:24:14;5.30;;;1.40;;
62037;SDS011;47991;42.974;12.082;2023-04-03T06:26:43;5.90;;;1.70;;
62037;SDS011;47991;42.974;12.082;2023-04-03T06:29:15;5.60;;;1.60;;
62037;SDS011;47991;42.974;12.082;2023-04-03T06:31:52;4.00;;;1.50;;
62037;SDS011;47991;42.974;12.082;2023-04-03T06:34:25;4.10;;;1.40;;
62037;SDS011;47991;42.974;12.082;2023-04-03T06:36:53;5.50;;;1.80;;
62037;SDS011;47991;42.974;12.082;2023-04-03T06:39:25;8.30;;;1.90;;
62037;SDS011;47991;42.974;12.082;2023-04-03T06:41:56;4.70;;;1.50;;
62037;SDS011;47991;42.974;12.082;2023-04-03T06:44:29;4.40;;;1.50;;
62037;SDS011;47991;42.974;12.082;2023-04-03T06:46:56;8.00;;;2.10;;
62037;SDS011;47991;42.974;12.082;2023-04-03T06:49:23;5.80;;;2.00;;
62037;SDS011;47991;42.974;12.082;2023-04-03T06:51:53;6.00;;;2.40;;
62037;SDS011;47991;42.974;12.082;2023-04-03T06:54:20;7.70;;;2.60;;
62037;SDS011;47991;42.974;12.082;2023-04-03T06:56:46;5.10;;;2.00;;
62037;SDS011;47991;42.974;12.082;2023-04-03T06:59:17;5.40;;;1.80;;
62037;SDS011;47991;42.974;12.082;2023-04-03T07:01:44;8.10;;;2.00;;
62037;SDS011;47991;42.974;12.082;2023-04-03T07:04:12;7.30;;;2.10;;
62037;SDS011;47991;42.974;12.082;2023-04-03T07:06:39;6.50;;;2.00;;
62037;SDS011;47991;42.974;12.082;2023-04-03T07:09:06;7.30;;;1.70;;
62037;SDS011;47991;42.974;12.082;2023-04-03T07:11:34;7.10;;;1.50;;
62037;SDS011;47991;42.974;12.082;2023-04-03T07:14:02;6.90;;;1.60;;
62037;SDS011;47991;42.974;12.082;2023-04-03T07:16:29;5.50;;;1.50;;
62037;SDS011;47991;42.974;12.082;2023-04-03T07:18:59;4.50;;;1.20;;
62037;SDS011;47991;42.974;12.082;2023-04-03T07:21:28;5.30;;;1.40;;
62037;SDS011;47991;42.974;12.082;2023-04-03T07:23:55;6.10;;;1.40;;
62037;SDS011;47991;42.974;12.082;2023-04-03T07:26:22;5.10;;;1.60;;
62037;SDS011;47991;42.974;12.082;2023-04-03T07:28:49;4.90;;;1.50;;
62037;SDS011;47991;42.974;12.082;2023-04-03T07:31:18;11.30;;;2.20;;
62037;SDS011;47991;42.974;12.082;2023-04-03T07:33:46;6.60;;;1.50;;
62037;SDS011;47991;42.974;12.082;2023-04-03T07:36:17;8.60;;;1.80;;
62037;SDS011;47991;42.974;12.082;2023-04-03T07:38:46;7.00;;;1.80;;
62037;SDS011;47991;42.974;12.082;2023-04-03T07:41:14;6.50;;;1.60;;
62037;SDS011;47991;42.974;12.082;2023-04-03T07:43:46;7.10;;;2.20;;
62037;SDS011;47991;42.974;12.082;2023-04-03T07:46:13;6.60;;;1.40;;
62037;SDS011;47991;42.974;12.082;2023-04-03T07:48:41;6.70;;;1.70;;
62037;SDS011;47991;42.974;12.082;2023-04-03T07:51:09;4.70;;;1.50;;
62037;SDS011;47991;42.974;12.082;2023-04-03T07:53:37;10.90;;;1.90;;
62037;SDS011;47991;42.974;12.082;2023-04-03T07:56:04;6.40;;;1.70;;
62037;SDS011;47991;42.974;12.082;2023-04-03T07:58:31;8.20;;;1.90;;
62037;SDS011;47991;42.974;12.082;2023-04-03T08:00:59;5.40;;;1.40;;
62037;SDS011;47991;42.974;12.082;2023-04-03T08:03:27;7.10;;;2.10;;
62037;SDS011;47991;42.974;12.082;2023-04-03T08:06:00;11.20;;;2.20;;
62037;SDS011;47991;42.974;12.082;2023-04-03T08:08:30;6.80;;;1.90;;
62037;SDS011;47991;42.974;12.082;2023-04-03T08:11:02;8.20;;;1.60;;
62037;SDS011;47991;42.974;12.082;2023-04-03T08:13:32;6.70;;;1.80;;
62037;SDS011;47991;42.974;12.082;2023-04-03T08:16:16;7.20;;;1.40;;
62037;SDS011;47991;42.974;12.082;2023-04-03T08:18:44;5.60;;;1.50;;
62037;SDS011;47991;42.974;12.082;2023-04-03T08:21:11;7.90;;;2.10;;
62037;SDS011;47991;42.974;12.082;2023-04-03T08:23:41;8.00;;;1.60;;
62037;SDS011;47991;42.974;12.082;2023-04-03T08:26:15;6.30;;;1.90;;
62037;SDS011;47991;42.974;12.082;2023-04-03T08:28:43;7.50;;;2.10;;
62037;SDS011;47991;42.974;12.082;2023-04-03T08:31:11;7.00;;;1.60;;
62037;SDS011;47991;42.974;12.082;2023-04-03T08:33:44;10.60;;;2.30;;
62037;SDS011;47991;42.974;12.082;2023-04-03T08:36:20;5.40;;;1.70;;
62037;SDS011;47991;42.974;12.082;2023-04-03T08:38:54;8.20;;;2.10;;
62037;SDS011;47991;42.974;12.082;2023-04-03T08:47:28;9.90;;;1.90;;
62037;SDS011;47991;42.974;12.082;2023-04-03T08:50:11;5.30;;;2.10;;
62037;SDS011;47991;42.974;12.082;2023-04-03T08:52:44;5.60;;;2.00;;
62037;SDS011;47991;42.974;12.082;2023-04-03T08:58:05;8.40;;;2.00;;
62037;SDS011;47991;42.974;12.082;2023-04-03T09:01:24;8.10;;;1.90;;
62037;SDS011;47991;42.974;12.082;2023-04-03T09:03:36;7.40;;;2.00;;
62037;SDS011;47991;42.974;12.082;2023-04-03T09:08:58;6.10;;;1.80;;
62037;SDS011;47991;42.974;12.082;2023-04-03T09:23:28;8.60;;;2.00;;
62037;SDS011;47991;42.974;12.082;2023-04-03T09:26:24;8.40;;;1.80;;
62037;SDS011;47991;42.974;12.082;2023-04-03T09:28:59;5.70;;;1.80;;
62037;SDS011;47991;42.974;12.082;2023-04-03T09:31:36;5.50;;;1.70;;
62037;SDS011;47991;42.974;12.082;2023-04-03T09:37:03;5.40;;;1.60;;
62037;SDS011;47991;42.974;12.082;2023-04-03T09:39:55;7.70;;;2.00;;
62037;SDS011;47991;42.974;12.082;2023-04-03T09:42:23;5.40;;;1.70;;
62037;SDS011;47991;42.974;12.082;2023-04-03T09:45:02;8.40;;;2.20;;
62037;SDS011;47991;42.974;12.082;2023-04-03T09:47:33;7.50;;;1.70;;
62037;SDS011;47991;42.974;12.082;2023-04-03T09:52:36;7.90;;;2.10;;
62037;SDS011;47991;42.974;12.082;2023-04-03T09:55:14;7.30;;;1.70;;
62037;SDS011;47991;42.974;12.082;2023-04-03T09:57:42;9.60;;;2.00;;
62037;SDS011;47991;42.974;12.082;2023-04-03T10:00:22;7.00;;;1.40;;
62037;SDS011;47991;42.974;12.082;2023-04-03T10:06:32;5.20;;;1.60;;
62037;SDS011;47991;42.974;12.082;2023-04-03T10:09:06;4.60;;;1.40;;
62037;SDS011;47991;42.974;12.082;2023-04-03T10:20:05;10.00;;;2.40;;
62037;SDS011;47991;42.974;12.082;2023-04-03T10:33:53;8.10;;;2.40;;
62037;SDS011;47991;42.974;12.082;2023-04-03T10:37:06;6.50;;;2.10;;
62037;SDS011;47991;42.974;12.082;2023-04-03T10:50:58;5.90;;;1.80;;
62037;SDS011;47991;42.974;12.082;2023-04-03T10:53:55;6.50;;;1.50;;
62037;SDS011;47991;42.974;12.082;2023-04-03T10:56:31;6.50;;;1.30;;
62037;SDS011;47991;42.974;12.082;2023-04-03T11:01:41;6.40;;;1.70;;
62037;SDS011;47991;42.974;12.082;2023-04-03T11:04:16;4.80;;;1.60;;
62037;SDS011;47991;42.974;12.082;2023-04-03T11:06:52;5.20;;;1.60;;
62037;SDS011;47991;42.974;12.082;2023-04-03T11:09:28;3.60;;;1.50;;
62037;SDS011;47991;42.974;12.082;2023-04-03T11:12:06;4.90;;;1.40;;
62037;SDS011;47991;42.974;12.082;2023-04-03T11:14:41;7.70;;;2.10;;
62037;SDS011;47991;42.974;12.082;2023-04-03T11:22:41;8.40;;;2.00;;
62037;SDS011;47991;42.974;12.082;2023-04-03T11:30:11;6.10;;;1.60;;
62037;SDS011;47991;42.974;12.082;2023-04-03T11:35:35;6.20;;;1.60;;
62037;SDS011;47991;42.974;12.082;2023-04-03T11:40:35;8.40;;;2.10;;
62037;SDS011;47991;42.974;12.082;2023-04-03T11:43:19;4.70;;;1.50;;
62037;SDS011;47991;42.974;12.082;2023-04-03T11:45:56;4.30;;;1.10;;
62037;SDS011;47991;42.974;12.082;2023-04-03T11:53:47;3.40;;;1.40;;
62037;SDS011;47991;42.974;12.082;2023-04-03T11:59:37;7.70;;;1.80;;
62037;SDS011;47991;42.974;12.082;2023-04-03T12:04:26;6.90;;;1.60;;
62037;SDS011;47991;42.974;12.082;2023-04-03T12:14:49;4.20;;;1.50;;
62037;SDS011;47991;42.974;12.082;2023-04-03T12:17:20;5.40;;;1.30;;
62037;SDS011;47991;42.974;12.082;2023-04-03T12:19:53;3.90;;;1.40;;
62037;SDS011;47991;42.974;12.082;2023-04-03T12:22:20;5.50;;;1.60;;
62037;SDS011;47991;42.974;12.082;2023-04-03T12:24:50;4.80;;;1.30;;
62037;SDS011;47991;42.974;12.082;2023-04-03T12:27:21;6.60;;;1.80;;
62037;SDS011;47991;42.974;12.082;2023-04-03T12:32:35;6.20;;;1.40;;
62037;SDS011;47991;42.974;12.082;2023-04-03T12:35:51;7.80;;;1.80;;
62037;SDS011;47991;42.974;12.082;2023-04-03T12:38:15;5.60;;;1.40;;
62037;SDS011;47991;42.974;12.082;2023-04-03T12:41:19;3.50;;;1.40;;
62037;SDS011;47991;42.974;12.082;2023-04-03T12:46:55;6.60;;;1.60;;
62037;SDS011;47991;42.974;12.082;2023-04-03T12:51:55;5.00;;;1.70;;
62037;SDS011;47991;42.974;12.082;2023-04-03T12:54:23;7.70;;;1.60;;
62037;SDS011;47991;42.974;12.082;2023-04-03T12:59:56;6.10;;;1.80;;
62037;SDS011;47991;42.974;12.082;2023-04-03T13:04:55;7.50;;;1.80;;
62037;SDS011;47991;42.974;12.082;2023-04-03T13:07:37;6.30;;;1.70;;
62037;SDS011;47991;42.974;12.082;2023-04-03T13:12:56;6.80;;;1.80;;
62037;SDS011;47991;42.974;12.082;2023-04-03T13:15:44;4.50;;;1.60;;
62037;SDS011;47991;42.974;12.082;2023-04-03T13:18:31;5.80;;;1.70;;
62037;SDS011;47991;42.974;12.082;2023-04-03T13:21:11;6.20;;;1.80;;
62037;SDS011;47991;42.974;12.082;2023-04-03T13:23:48;7.70;;;2.00;;
62037;SDS011;47991;42.974;12.082;2023-04-03T13:26:18;6.10;;;1.80;;
62037;SDS011;47991;42.974;12.082;2023-04-03T13:28:50;4.10;;;1.50;;
62037;SDS011;47991;42.974;12.082;2023-04-03T13:31:19;6.20;;;1.80;;
62037;SDS011;47991;42.974;12.082;2023-04-03T13:36:27;7.90;;;2.00;;
62037;SDS011;47991;42.974;12.082;2023-04-03T13:39:05;9.30;;;1.70;;
62037;SDS011;47991;42.974;12.082;2023-04-03T13:41:47;5.80;;;1.70;;
62037;SDS011;47991;42.974;12.082;2023-04-03T13:46:51;5.60;;;1.70;;
62037;SDS011;47991;42.974;12.082;2023-04-03T13:55:15;4.00;;;1.40;;
62037;SDS011;47991;42.974;12.082;2023-04-03T13:58:01;3.20;;;1.40;;
62037;SDS011;47991;42.974;12.082;2023-04-03T14:03:41;4.90;;;1.60;;
62037;SDS011;47991;42.974;12.082;2023-04-03T14:06:28;7.20;;;1.90;;
62037;SDS011;47991;42.974;12.082;2023-04-03T14:08:57;7.00;;;2.00;;
62037;SDS011;47991;42.974;12.082;2023-04-03T14:11:26;8.30;;;2.40;;
62037;SDS011;47991;42.974;12.082;2023-04-03T14:14:00;5.50;;;1.90;;
62037;SDS011;47991;42.974;12.082;2023-04-03T14:16:37;5.30;;;1.60;;
62037;SDS011;47991;42.974;12.082;2023-04-03T14:19:09;4.90;;;1.50;;
62037;SDS011;47991;42.974;12.082;2023-04-03T14:21:45;10.50;;;2.00;;
62037;SDS011;47991;42.974;12.082;2023-04-03T14:24:23;7.10;;;1.80;;
62037;SDS011;47991;42.974;12.082;2023-04-03T14:26:53;5.40;;;1.80;;
62037;SDS011;47991;42.974;12.082;2023-04-03T14:29:23;5.30;;;1.80;;
62037;SDS011;47991;42.974;12.082;2023-04-03T14:31:50;6.40;;;1.80;;
62037;SDS011;47991;42.974;12.082;2023-04-03T14:34:19;5.90;;;1.70;;
62037;SDS011;47991;42.974;12.082;2023-04-03T14:36:46;6.70;;;1.90;;
62037;SDS011;47991;42.974;12.082;2023-04-03T14:39:18;7.90;;;2.00;;
62037;SDS011;47991;42.974;12.082;2023-04-03T14:41:48;7.40;;;1.80;;
62037;SDS011;47991;42.974;12.082;2023-04-03T14:44:15;7.10;;;2.00;;
62037;SDS011;47991;42.974;12.082;2023-04-03T14:46:44;4.30;;;1.50;;
62037;SDS011;47991;42.974;12.082;2023-04-03T14:49:35;6.90;;;1.90;;
62037;SDS011;47991;42.974;12.082;2023-04-03T14:52:18;4.80;;;1.50;;
62037;SDS011;47991;42.974;12.082;2023-04-03T14:54:54;7.00;;;1.60;;
62037;SDS011;47991;42.974;12.082;2023-04-03T14:57:25;4.50;;;1.30;;
62037;SDS011;47991;42.974;12.082;2023-04-03T14:59:54;4.50;;;1.40;;
62037;SDS011;47991;42.974;12.082;2023-04-03T15:04:55;5.30;;;1.40;;
62037;SDS011;47991;42.974;12.082;2023-04-03T15:07:26;5.40;;;1.50;;
62037;SDS011;47991;42.974;12.082;2023-04-03T15:10:20;4.60;;;1.20;;
62037;SDS011;47991;42.974;12.082;2023-04-03T15:12:49;4.60;;;1.60;;
62037;SDS011;47991;42.974;12.082;2023-04-03T15:15:19;8.20;;;1.90;;
62037;SDS011;47991;42.974;12.082;2023-04-03T15:17:50;9.30;;;1.50;;
62037;SDS011;47991;42.974;12.082;2023-04-03T15:20:23;3.90;;;1.20;;
62037;SDS011;47991;42.974;12.082;2023-04-03T15:22:59;5.80;;;1.50;;
62037;SDS011;47991;42.974;12.082;2023-04-03T15:25:27;5.70;;;1.70;;
62037;SDS011;47991;42.974;12.082;2023-04-03T15:27:55;5.90;;;1.40;;
62037;SDS011;47991;42.974;12.082;2023-04-03T15:30:25;6.40;;;1.60;;
62037;SDS011;47991;42.974;12.082;2023-04-03T15:32:52;5.30;;;1.80;;
62037;SDS011;47991;42.974;12.082;2023-04-03T15:35:23;5.50;;;1.60;;
62037;SDS011;47991;42.974;12.082;2023-04-03T15:37:50;5.30;;;1.50;;
62037;SDS011;47991;42.974;12.082;2023-04-03T15:40:19;7.10;;;1.40;;
62037;SDS011;47991;42.974;12.082;2023-04-03T15:42:48;5.50;;;1.70;;
62037;SDS011;47991;42.974;12.082;2023-04-03T15:45:20;4.90;;;1.40;;
62037;SDS011;47991;42.974;12.082;2023-04-03T15:47:49;4.00;;;1.30;;
62037;SDS011;47991;42.974;12.082;2023-04-03T15:50:17;6.40;;;1.80;;
62037;SDS011;47991;42.974;12.082;2023-04-03T15:52:50;5.50;;;1.50;;
62037;SDS011;47991;42.974;12.082;2023-04-03T15:55:21;4.60;;;1.80;;
62037;SDS011;47991;42.974;12.082;2023-04-03T15:57:53;4.40;;;1.20;;
62037;SDS011;47991;42.974;12.082;2023-04-03T16:00:23;7.10;;;1.60;;
62037;SDS011;47991;42.974;12.082;2023-04-03T16:02:53;8.00;;;1.70;;
62037;SDS011;47991;42.974;12.082;2023-04-03T16:05:25;5.30;;;1.50;;
62037;SDS011;47991;42.974;12.082;2023-04-03T16:07:53;5.10;;;1.40;;
62037;SDS011;47991;42.974;12.082;2023-04-03T16:10:21;6.00;;;1.70;;
62037;SDS011;47991;42.974;12.082;2023-04-03T16:12:48;6.10;;;1.80;;
62037;SDS011;47991;42.974;12.082;2023-04-03T16:15:16;6.50;;;1.70;;
62037;SDS011;47991;42.974;12.082;2023-04-03T16:17:44;7.30;;;1.80;;
62037;SDS011;47991;42.974;12.082;2023-04-03T16:20:14;6.90;;;1.60;;
62037;SDS011;47991;42.974;12.082;2023-04-03T16:22:42;5.90;;;1.30;;
62037;SDS011;47991;42.974;12.082;2023-04-03T16:25:11;5.80;;;1.80;;
62037;SDS011;47991;42.974;12.082;2023-04-03T16:30:11;4.40;;;1.50;;
62037;SDS011;47991;42.974;12.082;2023-04-03T16:32:39;4.50;;;1.60;;
62037;SDS011;47991;42.974;12.082;2023-04-03T16:35:07;5.20;;;1.60;;
62037;SDS011;47991;42.974;12.082;2023-04-03T16:37:39;3.60;;;1.30;;
62037;SDS011;47991;42.974;12.082;2023-04-03T16:40:07;6.40;;;1.90;;
62037;SDS011;47991;42.974;12.082;2023-04-03T16:42:35;6.30;;;1.70;;
62037;SDS011;47991;42.974;12.082;2023-04-03T16:45:02;5.20;;;1.60;;
62037;SDS011;47991;42.974;12.082;2023-04-03T16:47:32;7.80;;;1.70;;
62037;SDS011;47991;42.974;12.082;2023-04-03T16:50:00;6.30;;;1.80;;
62037;SDS011;47991;42.974;12.082;2023-04-03T16:52:27;7.10;;;2.00;;
62037;SDS011;47991;42.974;12.082;2023-04-03T16:54:55;7.40;;;2.20;;
62037;SDS011;47991;42.974;12.082;2023-04-03T16:57:24;8.40;;;1.80;;
62037;SDS011;47991;42.974;12.082;2023-04-03T16:59:51;5.70;;;1.60;;
62037;SDS011;47991;42.974;12.082;2023-04-03T17:02:21;7.70;;;1.70;;
62037;SDS011;47991;42.974;12.082;2023-04-03T17:07:21;5.20;;;1.40;;
62037;SDS011;47991;42.974;12.082;2023-04-03T17:09:49;5.40;;;1.50;;
62037;SDS011;47991;42.974;12.082;2023-04-03T17:12:16;6.00;;;1.80;;
62037;SDS011;47991;42.974;12.082;2023-04-03T17:14:44;6.50;;;1.50;;
62037;SDS011;47991;42.974;12.082;2023-04-03T17:17:14;8.80;;;1.70;;
62037;SDS011;47991;42.974;12.082;2023-04-03T17:19:42;5.10;;;1.60;;
62037;SDS011;47991;42.974;12.082;2023-04-03T17:22:15;5.20;;;1.30;;
62037;SDS011;47991;42.974;12.082;2023-04-03T17:24:43;6.20;;;1.60;;
62037;SDS011;47991;42.974;12.082;2023-04-03T17:27:12;6.90;;;1.80;;
62037;SDS011;47991;42.974;12.082;2023-04-03T17:29:39;5.10;;;1.20;;
62037;SDS011;47991;42.974;12.082;2023-04-03T17:32:07;3.70;;;1.50;;
62037;SDS011;47991;42.974;12.082;2023-04-03T17:34:34;4.10;;;1.50;;
62037;SDS011;47991;42.974;12.082;2023-04-03T17:37:02;7.30;;;1.90;;